Afton Lake, NY

1:51 PM EDT on April 01, 2015 (GMT -0400)
N2RLH/AFTON | | Change Station
CLOSE
Current Station
Personal Weather Station
Location: Afton, NY
Elevation: 968 ft
Nearby Weather Stations

Elev 968 ft 42.23 °N, 75.52 °W | Updated 3 minutes ago

Clear
Clear
44.1 °F
Feels Like 39 °F
N
8.3
Wind Variable Wind from West

Today
High -- | Low -- °F
--% Chance of Precip.
Yesterday
High -- | Low -- °F
Precip. -- in
6:44 AM 7:27 PM
Waxing Gibbous, 93% visible
Pressure 30.14 in
Visibility 10.0 miles
Clouds Clear
Windchill 39 °F
Dew Point 13 °F
Humidity 28%
Rainfall 0.00 in
Snow Depth Not available.
UV 8 out of 12
Pollen 4.00 out of 12
Air Quality Not available.
Flu Activity Not available.
METAR KBGM 011653Z 32011KT 10SM CLR 01/M10 A3008 RMK AO2 SLP205 T00111100

More Conditions Fewer Conditions

Pressure 30.14 in
Visibility 10.0 miles
Clouds Clear
Windchill 39 °F
Dew Point 13 °F
Humidity 28%
Rainfall 0.00 in
Snow Depth Not available.
UV 8 out of 12
Pollen 4.00 out of 12
Air Quality Not available.
Flu Activity Not available.
METAR KBGM 011653Z 32011KT 10SM CLR 01/M10 A3008 RMK AO2 SLP205 T00111100

More Conditions Fewer Conditions

10-Day Weather Forecast

Almanac

Astronomy

Apr. 01, 2015 Rise Set
Actual Time
Civil Twilight
Nautical Twilight
Astronomical Twilight
Moon
Length of Visible Light
Length of Day
Tomorrow will be .
, % of the Moon is Illuminated

Today's Extremes

State Highs State Lows

Community

WunderPhotos

Upload Photos

1,810,018 photos uploaded!

WunderBlogs® & News

Nearby

Air Quality

  Air Quality AQ Index Pollutant
Not available.

Snow Depth

Station Depth Elevation

Earthquake Activity

City Distance Mag. Time & Date
Minimum magnitude displayed is 2.5.

Coastal Water Temperatures

Place Temperature

Stations

Nearby Weather Stations

Station Location Temp. Windchill Dew Point Humidity Wind Precip. Elev Updated Type